sensor_id;sensor_type;location;lat;lon;timestamp;pressure;altitude;pressure_sealevel;temperature;humidity
17438;BME280;70275;52.198;5.422;2023-05-23T00:00:16;101799.31;;;14.56;75.34
17438;BME280;70275;52.198;5.422;2023-05-23T00:02:45;101798.91;;;14.40;76.03
17438;BME280;70275;52.198;5.422;2023-05-23T00:05:14;101800.59;;;14.41;76.52
17438;BME280;70275;52.198;5.422;2023-05-23T00:07:44;101811.38;;;14.19;76.36
17438;BME280;70275;52.198;5.422;2023-05-23T00:10:13;101785.13;;;14.35;76.88
17438;BME280;70275;52.198;5.422;2023-05-23T00:12:42;101796.53;;;14.26;77.09
17438;BME280;70275;52.198;5.422;2023-05-23T00:15:13;101813.19;;;14.18;77.53
17438;BME280;70275;52.198;5.422;2023-05-23T00:17:44;101808.25;;;14.14;77.72
17438;BME280;70275;52.198;5.422;2023-05-23T00:20:13;101815.91;;;14.07;77.92
17438;BME280;70275;52.198;5.422;2023-05-23T00:22:42;101804.53;;;14.05;78.35
17438;BME280;70275;52.198;5.422;2023-05-23T00:25:13;101801.47;;;14.10;77.80
17438;BME280;70275;52.198;5.422;2023-05-23T00:27:42;101811.03;;;14.12;77.67
17438;BME280;70275;52.198;5.422;2023-05-23T00:30:11;101791.31;;;14.04;77.39
17438;BME280;70275;52.198;5.422;2023-05-23T00:32:43;101834.97;;;13.91;77.90
17438;BME280;70275;52.198;5.422;2023-05-23T00:35:12;101827.72;;;13.82;77.90
17438;BME280;70275;52.198;5.422;2023-05-23T00:37:41;101820.22;;;13.87;77.90
17438;BME280;70275;52.198;5.422;2023-05-23T00:40:11;101825.16;;;13.92;77.78
17438;BME280;70275;52.198;5.422;2023-05-23T00:42:40;101816.78;;;13.97;77.33
17438;BME280;70275;52.198;5.422;2023-05-23T00:45:10;101829.91;;;13.88;77.71
17438;BME280;70275;52.198;5.422;2023-05-23T00:47:43;101830.25;;;13.95;77.50
17438;BME280;70275;52.198;5.422;2023-05-23T00:50:14;101826.63;;;13.96;77.75
17438;BME280;70275;52.198;5.422;2023-05-23T00:52:45;101832.78;;;13.97;78.30
17438;BME280;70275;52.198;5.422;2023-05-23T00:55:15;101827.44;;;13.97;78.52
17438;BME280;70275;52.198;5.422;2023-05-23T00:57:44;101825.06;;;13.93;78.76
17438;BME280;70275;52.198;5.422;2023-05-23T01:00:14;101830.88;;;13.87;78.72
17438;BME280;70275;52.198;5.422;2023-05-23T01:02:48;101831.59;;;13.89;79.22
17438;BME280;70275;52.198;5.422;2023-05-23T01:05:20;101832.34;;;13.80;79.09
17438;BME280;70275;52.198;5.422;2023-05-23T01:07:50;101823.63;;;13.78;79.60
17438;BME280;70275;52.198;5.422;2023-05-23T01:10:24;101822.22;;;13.74;79.73
17438;BME280;70275;52.198;5.422;2023-05-23T01:13:08;101819.13;;;13.90;79.01
17438;BME280;70275;52.198;5.422;2023-05-23T01:15:46;101819.59;;;13.95;78.83
17438;BME280;70275;52.198;5.422;2023-05-23T01:18:29;101833.00;;;14.05;78.53
17438;BME280;70275;52.198;5.422;2023-05-23T01:21:08;101827.66;;;14.05;78.46
17438;BME280;70275;52.198;5.422;2023-05-23T01:24:10;101833.38;;;14.00;78.31
17438;BME280;70275;52.198;5.422;2023-05-23T01:27:03;101834.09;;;14.02;78.21
17438;BME280;70275;52.198;5.422;2023-05-23T01:29:42;101822.59;;;14.02;78.06
17438;BME280;70275;52.198;5.422;2023-05-23T01:32:15;101828.44;;;13.96;78.17
17438;BME280;70275;52.198;5.422;2023-05-23T01:34:51;101825.50;;;13.99;78.41
17438;BME280;70275;52.198;5.422;2023-05-23T01:37:21;101833.97;;;14.04;78.09
17438;BME280;70275;52.198;5.422;2023-05-23T01:39:50;101822.81;;;14.10;77.88
17438;BME280;70275;52.198;5.422;2023-05-23T01:42:19;101823.75;;;14.09;78.23
17438;BME280;70275;52.198;5.422;2023-05-23T01:44:51;101837.63;;;13.91;78.36
17438;BME280;70275;52.198;5.422;2023-05-23T01:47:21;101827.97;;;13.90;78.33
17438;BME280;70275;52.198;5.422;2023-05-23T01:49:51;101831.00;;;13.86;78.35
17438;BME280;70275;52.198;5.422;2023-05-23T01:52:22;101831.47;;;13.91;78.12
17438;BME280;70275;52.198;5.422;2023-05-23T01:54:52;101836.09;;;13.89;77.89
17438;BME280;70275;52.198;5.422;2023-05-23T01:57:23;101836.19;;;13.87;78.37
17438;BME280;70275;52.198;5.422;2023-05-23T01:59:54;101833.97;;;13.72;78.55
17438;BME280;70275;52.198;5.422;2023-05-23T02:02:24;101829.97;;;13.66;78.68
17438;BME280;70275;52.198;5.422;2023-05-23T02:04:53;101857.81;;;13.62;78.45
17438;BME280;70275;52.198;5.422;2023-05-23T02:07:23;101850.56;;;13.64;78.41
17438;BME280;70275;52.198;5.422;2023-05-23T02:09:52;101848.75;;;13.65;78.14
17438;BME280;70275;52.198;5.422;2023-05-23T02:12:21;101844.13;;;13.67;78.39
17438;BME280;70275;52.198;5.422;2023-05-23T02:14:50;101856.59;;;13.77;78.10
17438;BME280;70275;52.198;5.422;2023-05-23T02:17:22;101852.22;;;13.76;78.12
17438;BME280;70275;52.198;5.422;2023-05-23T02:19:51;101850.53;;;13.75;78.06
17438;BME280;70275;52.198;5.422;2023-05-23T02:22:22;101848.59;;;13.77;78.02
17438;BME280;70275;52.198;5.422;2023-05-23T02:24:52;101859.97;;;13.68;78.43
17438;BME280;70275;52.198;5.422;2023-05-23T02:27:21;101864.22;;;13.71;78.70
17438;BME280;70275;52.198;5.422;2023-05-23T02:29:50;101860.56;;;13.83;78.02
17438;BME280;70275;52.198;5.422;2023-05-23T02:32:21;101857.31;;;13.79;77.94
17438;BME280;70275;52.198;5.422;2023-05-23T02:34:51;101859.69;;;13.93;77.58
17438;BME280;70275;52.198;5.422;2023-05-23T02:37:19;101874.50;;;13.86;77.63
17438;BME280;70275;52.198;5.422;2023-05-23T02:39:48;101860.66;;;13.92;76.66
17438;BME280;70275;52.198;5.422;2023-05-23T02:42:17;101861.88;;;13.88;76.81
17438;BME280;70275;52.198;5.422;2023-05-23T02:44:46;101863.31;;;13.92;76.42
17438;BME280;70275;52.198;5.422;2023-05-23T02:47:15;101870.75;;;13.89;76.52
17438;BME280;70275;52.198;5.422;2023-05-23T02:49:47;101864.41;;;13.90;76.78
17438;BME280;70275;52.198;5.422;2023-05-23T02:52:15;101865.03;;;13.93;76.50
17438;BME280;70275;52.198;5.422;2023-05-23T02:54:44;101873.75;;;13.96;76.36
17438;BME280;70275;52.198;5.422;2023-05-23T02:57:13;101865.13;;;13.92;76.41
17438;BME280;70275;52.198;5.422;2023-05-23T02:59:42;101878.56;;;14.02;75.91
17438;BME280;70275;52.198;5.422;2023-05-23T03:02:11;101871.38;;;14.13;75.73
17438;BME280;70275;52.198;5.422;2023-05-23T03:04:40;101886.94;;;13.97;76.16
17438;BME280;70275;52.198;5.422;2023-05-23T03:07:12;101883.53;;;13.95;76.05
17438;BME280;70275;52.198;5.422;2023-05-23T03:09:41;101880.06;;;13.83;76.50
17438;BME280;70275;52.198;5.422;2023-05-23T03:12:10;101872.78;;;13.85;76.53
17438;BME280;70275;52.198;5.422;2023-05-23T03:14:39;101879.22;;;13.83;76.08
17438;BME280;70275;52.198;5.422;2023-05-23T03:17:08;101884.19;;;13.76;76.15
17438;BME280;70275;52.198;5.422;2023-05-23T03:19:37;101884.94;;;13.67;76.66
17438;BME280;70275;52.198;5.422;2023-05-23T03:22:05;101892.31;;;13.64;76.18
17438;BME280;70275;52.198;5.422;2023-05-23T03:24:37;101899.97;;;13.57;76.44
17438;BME280;70275;52.198;5.422;2023-05-23T03:27:06;101873.84;;;13.40;76.23
17438;BME280;70275;52.198;5.422;2023-05-23T03:29:35;101884.00;;;13.46;76.52
17438;BME280;70275;52.198;5.422;2023-05-23T03:32:05;101895.38;;;13.48;76.42
17438;BME280;70275;52.198;5.422;2023-05-23T03:34:34;101890.53;;;13.42;76.68
17438;BME280;70275;52.198;5.422;2023-05-23T03:37:04;101880.13;;;13.50;76.24
17438;BME280;70275;52.198;5.422;2023-05-23T03:39:33;101879.13;;;13.62;76.15
17438;BME280;70275;52.198;5.422;2023-05-23T03:42:05;101891.84;;;13.48;76.60
17438;BME280;70275;52.198;5.422;2023-05-23T03:44:34;101897.56;;;13.43;76.40
17438;BME280;70275;52.198;5.422;2023-05-23T03:47:04;101898.53;;;13.42;76.43
17438;BME280;70275;52.198;5.422;2023-05-23T03:49:32;101896.34;;;13.36;76.45
17438;BME280;70275;52.198;5.422;2023-05-23T03:52:01;101907.72;;;13.38;76.57
17438;BME280;70275;52.198;5.422;2023-05-23T03:54:30;101900.94;;;13.23;76.79
17438;BME280;70275;52.198;5.422;2023-05-23T03:56:59;101904.34;;;13.25;77.03
17438;BME280;70275;52.198;5.422;2023-05-23T03:59:31;101907.72;;;13.27;76.70
17438;BME280;70275;52.198;5.422;2023-05-23T04:02:00;101908.47;;;13.40;76.72
17438;BME280;70275;52.198;5.422;2023-05-23T04:04:29;101903.25;;;13.28;77.06
17438;BME280;70275;52.198;5.422;2023-05-23T04:06:58;101913.91;;;13.28;77.38
17438;BME280;70275;52.198;5.422;2023-05-23T04:09:27;101914.75;;;13.28;77.14
17438;BME280;70275;52.198;5.422;2023-05-23T04:11:57;101914.50;;;13.20;77.51
17438;BME280;70275;52.198;5.422;2023-05-23T04:14:26;101928.66;;;13.20;77.40
17438;BME280;70275;52.198;5.422;2023-05-23T04:16:58;101924.91;;;13.12;78.12
17438;BME280;70275;52.198;5.422;2023-05-23T04:19:27;101933.13;;;13.20;77.93
17438;BME280;70275;52.198;5.422;2023-05-23T04:21:56;101934.69;;;13.11;77.84
17438;BME280;70275;52.198;5.422;2023-05-23T04:24:25;101948.00;;;13.11;77.67
17438;BME280;70275;52.198;5.422;2023-05-23T04:26:54;101938.72;;;13.17;77.29
17438;BME280;70275;52.198;5.422;2023-05-23T04:29:24;101951.97;;;13.06;77.07
17438;BME280;70275;52.198;5.422;2023-05-23T04:31:59;101943.53;;;13.12;76.82
17438;BME280;70275;52.198;5.422;2023-05-23T04:34:28;101939.38;;;13.08;76.69
17438;BME280;70275;52.198;5.422;2023-05-23T04:36:58;101948.13;;;13.10;76.25
17438;BME280;70275;52.198;5.422;2023-05-23T04:39:28;101954.59;;;12.95;76.24
17438;BME280;70275;52.198;5.422;2023-05-23T04:41:57;101953.28;;;13.00;76.33
17438;BME280;70275;52.198;5.422;2023-05-23T04:44:26;101948.81;;;13.01;76.28
17438;BME280;70275;52.198;5.422;2023-05-23T04:46:58;101957.59;;;12.90;76.17
17438;BME280;70275;52.198;5.422;2023-05-23T04:49:27;101967.88;;;12.84;76.45
17438;BME280;70275;52.198;5.422;2023-05-23T04:51:59;101961.91;;;12.80;75.95
17438;BME280;70275;52.198;5.422;2023-05-23T04:54:27;101962.66;;;12.82;76.02
17438;BME280;70275;52.198;5.422;2023-05-23T04:56:56;101964.28;;;12.96;75.81
17438;BME280;70275;52.198;5.422;2023-05-23T04:59:25;101974.63;;;12.77;76.18
17438;BME280;70275;52.198;5.422;2023-05-23T05:01:54;101976.41;;;12.76;75.88
17438;BME280;70275;52.198;5.422;2023-05-23T05:04:26;101983.28;;;12.68;75.69
17438;BME280;70275;52.198;5.422;2023-05-23T05:06:55;101995.13;;;12.64;75.19
17438;BME280;70275;52.198;5.422;2023-05-23T05:09:24;101967.03;;;12.60;74.78
17438;BME280;70275;52.198;5.422;2023-05-23T05:11:52;101998.84;;;12.61;74.69
17438;BME280;70275;52.198;5.422;2023-05-23T05:14:22;102009.16;;;12.66;74.10
17438;BME280;70275;52.198;5.422;2023-05-23T05:16:51;102012.41;;;12.69;73.68
17438;BME280;70275;52.198;5.422;2023-05-23T05:19:25;102002.78;;;12.79;73.53
17438;BME280;70275;52.198;5.422;2023-05-23T05:21:53;102014.16;;;12.81;73.40
17438;BME280;70275;52.198;5.422;2023-05-23T05:24:22;102015.19;;;12.68;72.26
17438;BME280;70275;52.198;5.422;2023-05-23T05:26:53;102009.16;;;12.66;71.42
17438;BME280;70275;52.198;5.422;2023-05-23T05:29:22;102019.19;;;12.73;70.98
17438;BME280;70275;52.198;5.422;2023-05-23T05:31:52;102034.34;;;12.73;70.27
17438;BME280;70275;52.198;5.422;2023-05-23T05:34:20;102038.41;;;12.66;70.93
17438;BME280;70275;52.198;5.422;2023-05-23T05:36:53;102049.31;;;12.74;70.90
17438;BME280;70275;52.198;5.422;2023-05-23T05:39:23;102050.28;;;12.73;71.02
17438;BME280;70275;52.198;5.422;2023-05-23T05:41:53;102046.09;;;12.81;71.30
17438;BME280;70275;52.198;5.422;2023-05-23T05:44:22;102050.84;;;12.89;71.09
17438;BME280;70275;52.198;5.422;2023-05-23T05:46:51;102055.00;;;12.80;71.21
17438;BME280;70275;52.198;5.422;2023-05-23T05:49:20;102051.06;;;12.86;71.30
17438;BME280;70275;52.198;5.422;2023-05-23T05:51:53;102056.22;;;12.76;71.32
17438;BME280;70275;52.198;5.422;2023-05-23T05:54:22;102055.78;;;12.82;71.01
17438;BME280;70275;52.198;5.422;2023-05-23T05:56:50;102059.94;;;12.97;70.53
17438;BME280;70275;52.198;5.422;2023-05-23T05:59:19;102060.47;;;12.79;70.44
17438;BME280;70275;52.198;5.422;2023-05-23T06:01:49;102065.22;;;12.63;69.93
17438;BME280;70275;52.198;5.422;2023-05-23T06:04:18;102060.84;;;12.85;68.67
17438;BME280;70275;52.198;5.422;2023-05-23T06:06:47;102055.81;;;12.70;68.02
17438;BME280;70275;52.198;5.422;2023-05-23T06:09:18;102065.34;;;12.61;68.00
17438;BME280;70275;52.198;5.422;2023-05-23T06:11:47;102075.63;;;12.66;68.38
17438;BME280;70275;52.198;5.422;2023-05-23T06:14:16;102068.56;;;12.53;68.45
17438;BME280;70275;52.198;5.422;2023-05-23T06:16:45;102076.94;;;12.60;69.50
17438;BME280;70275;52.198;5.422;2023-05-23T06:19:14;102053.38;;;12.43;70.19
17438;BME280;70275;52.198;5.422;2023-05-23T06:21:43;102077.66;;;12.62;70.16
17438;BME280;70275;52.198;5.422;2023-05-23T06:24:11;102069.72;;;12.73;70.04
17438;BME280;70275;52.198;5.422;2023-05-23T06:26:43;102070.53;;;12.63;70.31
17438;BME280;70275;52.198;5.422;2023-05-23T06:29:12;102080.44;;;12.61;70.24
17438;BME280;70275;52.198;5.422;2023-05-23T06:31:41;102077.44;;;12.65;70.56
17438;BME280;70275;52.198;5.422;2023-05-23T06:34:10;102084.13;;;12.71;70.12
17438;BME280;70275;52.198;5.422;2023-05-23T06:36:39;102076.59;;;12.65;70.52
17438;BME280;70275;52.198;5.422;2023-05-23T06:39:08;102070.03;;;12.81;70.32
17438;BME280;70275;52.198;5.422;2023-05-23T06:41:38;102065.72;;;12.68;70.60
17438;BME280;70275;52.198;5.422;2023-05-23T06:44:10;102078.00;;;12.57;71.28
17438;BME280;70275;52.198;5.422;2023-05-23T06:46:39;102086.09;;;12.56;71.12
17438;BME280;70275;52.198;5.422;2023-05-23T06:49:08;102094.41;;;12.51;70.80
17438;BME280;70275;52.198;5.422;2023-05-23T06:51:37;102085.38;;;12.54;70.44
17438;BME280;70275;52.198;5.422;2023-05-23T06:54:06;102080.78;;;12.56;70.77
17438;BME280;70275;52.198;5.422;2023-05-23T06:56:35;102088.44;;;12.48;71.22
17438;BME280;70275;52.198;5.422;2023-05-23T06:59:04;102100.41;;;12.42;71.58
17438;BME280;70275;52.198;5.422;2023-05-23T07:01:35;102104.13;;;12.40;72.23
17438;BME280;70275;52.198;5.422;2023-05-23T07:04:04;102106.13;;;12.36;73.11
17438;BME280;70275;52.198;5.422;2023-05-23T07:06:34;102104.50;;;12.10;73.85
17438;BME280;70275;52.198;5.422;2023-05-23T07:09:04;102117.03;;;12.21;73.99
17438;BME280;70275;52.198;5.422;2023-05-23T07:11:33;102111.69;;;12.21;73.33
17438;BME280;70275;52.198;5.422;2023-05-23T07:14:04;102106.88;;;12.38;71.94
17438;BME280;70275;52.198;5.422;2023-05-23T07:16:36;102112.72;;;12.43;71.49
17438;BME280;70275;52.198;5.422;2023-05-23T07:19:05;102117.09;;;12.44;70.59
17438;BME280;70275;52.198;5.422;2023-05-23T07:21:33;102115.69;;;12.51;69.56
17438;BME280;70275;52.198;5.422;2023-05-23T07:24:02;102119.19;;;12.76;68.23
17438;BME280;70275;52.198;5.422;2023-05-23T07:26:31;102115.13;;;12.83;66.14
17438;BME280;70275;52.198;5.422;2023-05-23T07:29:00;102135.50;;;13.07;65.46
17438;BME280;70275;52.198;5.422;2023-05-23T07:31:30;102132.03;;;13.18;65.63
17438;BME280;70275;52.198;5.422;2023-05-23T07:34:02;102124.53;;;12.99;65.63
17438;BME280;70275;52.198;5.422;2023-05-23T07:36:31;102141.13;;;13.03;65.71
17438;BME280;70275;52.198;5.422;2023-05-23T07:39:02;102140.09;;;13.05;64.83
17438;BME280;70275;52.198;5.422;2023-05-23T07:41:32;102130.94;;;12.97;63.11
17438;BME280;70275;52.198;5.422;2023-05-23T07:44:00;102124.34;;;13.26;62.39
17438;BME280;70275;52.198;5.422;2023-05-23T07:46:29;102139.44;;;13.02;62.29
17438;BME280;70275;52.198;5.422;2023-05-23T07:49:01;102136.47;;;13.41;62.88
17438;BME280;70275;52.198;5.422;2023-05-23T07:51:30;102137.69;;;13.37;62.64
17438;BME280;70275;52.198;5.422;2023-05-23T07:53:58;102129.88;;;13.23;63.44
17438;BME280;70275;52.198;5.422;2023-05-23T07:56:28;102133.31;;;13.36;63.00
17438;BME280;70275;52.198;5.422;2023-05-23T07:58:57;102132.41;;;13.01;63.44
17438;BME280;70275;52.198;5.422;2023-05-23T08:01:26;102136.91;;;13.24;62.85
17438;BME280;70275;52.198;5.422;2023-05-23T08:03:55;102134.97;;;13.61;62.73
17438;BME280;70275;52.198;5.422;2023-05-23T08:06:27;102135.59;;;13.30;63.04
17438;BME280;70275;52.198;5.422;2023-05-23T08:08:56;102154.22;;;13.64;61.41
17438;BME280;70275;52.198;5.422;2023-05-23T08:11:25;102135.16;;;13.36;62.74
17438;BME280;70275;52.198;5.422;2023-05-23T08:13:55;102161.28;;;13.42;62.43
17438;BME280;70275;52.198;5.422;2023-05-23T08:16:25;102154.50;;;13.38;62.57
17438;BME280;70275;52.198;5.422;2023-05-23T08:18:54;102139.38;;;12.91;64.20
17438;BME280;70275;52.198;5.422;2023-05-23T08:21:26;102135.63;;;12.93;63.68
17438;BME280;70275;52.198;5.422;2023-05-23T08:23:55;102157.06;;;13.50;62.83
17438;BME280;70275;52.198;5.422;2023-05-23T08:26:24;102150.81;;;13.51;61.88
17438;BME280;70275;52.198;5.422;2023-05-23T08:28:59;102163.81;;;13.78;60.54
17438;BME280;70275;52.198;5.422;2023-05-23T08:31:30;102143.75;;;13.50;60.07
17438;BME280;70275;52.198;5.422;2023-05-23T08:34:00;102169.25;;;13.65;61.29
17438;BME280;70275;52.198;5.422;2023-05-23T08:36:31;102171.97;;;13.53;60.31
17438;BME280;70275;52.198;5.422;2023-05-23T08:39:01;102172.69;;;13.44;60.31
17438;BME280;70275;52.198;5.422;2023-05-23T08:41:31;102175.69;;;13.74;59.11
17438;BME280;70275;52.198;5.422;2023-05-23T08:44:00;102178.66;;;13.58;59.69
17438;BME280;70275;52.198;5.422;2023-05-23T08:46:31;102174.38;;;13.90;58.73
17438;BME280;70275;52.198;5.422;2023-05-23T08:49:01;102183.34;;;13.89;59.97
17438;BME280;70275;52.198;5.422;2023-05-23T08:51:36;102162.22;;;13.30;61.74
17438;BME280;70275;52.198;5.422;2023-05-23T08:54:06;102173.88;;;13.40;61.65
17438;BME280;70275;52.198;5.422;2023-05-23T08:56:38;102176.19;;;13.44;61.67
17438;BME280;70275;52.198;5.422;2023-05-23T08:59:09;102199.88;;;13.71;61.30
17438;BME280;70275;52.198;5.422;2023-05-23T09:01:40;102178.84;;;13.79;59.56
17438;BME280;70275;52.198;5.422;2023-05-23T09:04:11;102189.06;;;13.61;58.78
17438;BME280;70275;52.198;5.422;2023-05-23T09:06:43;102197.25;;;14.39;57.05
17438;BME280;70275;52.198;5.422;2023-05-23T09:09:12;102194.59;;;14.61;56.41
17438;BME280;70275;52.198;5.422;2023-05-23T09:11:42;102192.34;;;14.99;54.15
17438;BME280;70275;52.198;5.422;2023-05-23T09:14:11;102199.91;;;14.50;56.09
17438;BME280;70275;52.198;5.422;2023-05-23T09:16:46;102203.50;;;14.27;55.44
17438;BME280;70275;52.198;5.422;2023-05-23T09:19:19;102190.28;;;14.92;54.13
17438;BME280;70275;52.198;5.422;2023-05-23T09:21:53;102201.59;;;14.73;55.15
17438;BME280;70275;52.198;5.422;2023-05-23T09:24:22;102221.72;;;14.66;55.76
17438;BME280;70275;52.198;5.422;2023-05-23T09:26:51;102215.91;;;14.83;56.65
17438;BME280;70275;52.198;5.422;2023-05-23T09:29:20;102205.47;;;14.91;57.40
17438;BME280;70275;52.198;5.422;2023-05-23T09:31:49;102220.91;;;14.66;58.07
17438;BME280;70275;52.198;5.422;2023-05-23T09:34:18;102213.75;;;14.55;56.87
17438;BME280;70275;52.198;5.422;2023-05-23T09:36:47;102238.59;;;14.55;56.54
17438;BME280;70275;52.198;5.422;2023-05-23T09:39:18;102225.69;;;14.16;56.63
17438;BME280;70275;52.198;5.422;2023-05-23T09:41:48;102227.41;;;14.28;55.88
17438;BME280;70275;52.198;5.422;2023-05-23T09:44:22;102217.31;;;14.10;56.67
17438;BME280;70275;52.198;5.422;2023-05-23T09:46:51;102217.03;;;14.58;55.69
17438;BME280;70275;52.198;5.422;2023-05-23T09:49:21;102218.84;;;14.47;55.60
17438;BME280;70275;52.198;5.422;2023-05-23T09:51:59;102217.03;;;14.02;57.08
17438;BME280;70275;52.198;5.422;2023-05-23T09:54:31;102226.63;;;14.15;57.65
17438;BME280;70275;52.198;5.422;2023-05-23T09:57:01;102232.59;;;14.08;57.80
17438;BME280;70275;52.198;5.422;2023-05-23T09:59:37;102224.59;;;14.19;56.91
17438;BME280;70275;52.198;5.422;2023-05-23T10:02:10;102236.78;;;14.56;55.70
17438;BME280;70275;52.198;5.422;2023-05-23T10:04:42;102232.00;;;15.04;53.45
17438;BME280;70275;52.198;5.422;2023-05-23T10:07:13;102220.84;;;15.10;51.98
17438;BME280;70275;52.198;5.422;2023-05-23T10:09:55;102238.59;;;14.67;53.50
17438;BME280;70275;52.198;5.422;2023-05-23T10:12:46;102234.47;;;14.96;53.75
17438;BME280;70275;52.198;5.422;2023-05-23T10:15:18;102241.13;;;14.90;55.31
17438;BME280;70275;52.198;5.422;2023-05-23T10:18:02;102231.97;;;14.04;58.81
17438;BME280;70275;52.198;5.422;2023-05-23T10:20:33;102256.81;;;14.05;58.56
17438;BME280;70275;52.198;5.422;2023-05-23T10:23:04;102251.88;;;14.22;57.23
17438;BME280;70275;52.198;5.422;2023-05-23T10:25:36;102252.31;;;14.40;56.92
17438;BME280;70275;52.198;5.422;2023-05-23T10:28:07;102251.94;;;14.78;56.52
17438;BME280;70275;52.198;5.422;2023-05-23T10:30:37;102253.34;;;15.26;54.43
17438;BME280;70275;52.198;5.422;2023-05-23T10:33:07;102223.19;;;14.81;53.82
17438;BME280;70275;52.198;5.422;2023-05-23T10:35:52;102240.91;;;14.71;53.77
17438;BME280;70275;52.198;5.422;2023-05-23T10:38:34;102252.72;;;15.45;52.25
17438;BME280;70275;52.198;5.422;2023-05-23T10:41:12;102245.22;;;15.91;52.48
17438;BME280;70275;52.198;5.422;2023-05-23T10:43:51;102237.75;;;14.66;55.90
17438;BME280;70275;52.198;5.422;2023-05-23T10:46:23;102261.28;;;14.61;56.71
17438;BME280;70275;52.198;5.422;2023-05-23T10:49:12;102254.19;;;15.15;55.37
17438;BME280;70275;52.198;5.422;2023-05-23T10:51:41;102251.31;;;14.52;55.94
17438;BME280;70275;52.198;5.422;2023-05-23T10:54:10;102242.59;;;15.48;53.92
17438;BME280;70275;52.198;5.422;2023-05-23T10:56:42;102250.66;;;15.15;54.11
17438;BME280;70275;52.198;5.422;2023-05-23T10:59:19;102259.03;;;15.32;53.65
17438;BME280;70275;52.198;5.422;2023-05-23T11:01:50;102268.78;;;14.78;54.47
17438;BME280;70275;52.198;5.422;2023-05-23T11:04:25;102258.38;;;14.75;52.40
17438;BME280;70275;52.198;5.422;2023-05-23T11:06:55;102256.06;;;14.82;52.56
17438;BME280;70275;52.198;5.422;2023-05-23T11:09:24;102259.38;;;15.82;51.11
17438;BME280;70275;52.198;5.422;2023-05-23T11:12:01;102250.31;;;15.08;52.19
17438;BME280;70275;52.198;5.422;2023-05-23T11:14:52;102258.13;;;16.27;49.50
17438;BME280;70275;52.198;5.422;2023-05-23T11:17:31;102257.09;;;15.98;51.32
17438;BME280;70275;52.198;5.422;2023-05-23T11:20:04;102252.56;;;15.46;52.39
17438;BME280;70275;52.198;5.422;2023-05-23T11:22:34;102256.97;;;15.47;53.48
17438;BME280;70275;52.198;5.422;2023-05-23T11:25:07;102267.44;;;15.06;54.03
17438;BME280;70275;52.198;5.422;2023-05-23T11:27:40;102261.47;;;15.67;53.15
17438;BME280;70275;52.198;5.422;2023-05-23T11:30:12;102249.56;;;15.17;54.25
17438;BME280;70275;52.198;5.422;2023-05-23T11:32:49;102261.16;;;14.74;54.83
17438;BME280;70275;52.198;5.422;2023-05-23T11:35:20;102268.41;;;15.70;52.71
17438;BME280;70275;52.198;5.422;2023-05-23T11:37:49;102256.88;;;15.15;52.87
17438;BME280;70275;52.198;5.422;2023-05-23T11:40:29;102266.59;;;14.94;54.51
17438;BME280;70275;52.198;5.422;2023-05-23T11:43:04;102271.59;;;14.77;54.01
17438;BME280;70275;52.198;5.422;2023-05-23T11:45:34;102266.25;;;14.77;54.33
17438;BME280;70275;52.198;5.422;2023-05-23T11:48:08;102276.09;;;14.98;53.47
17438;BME280;70275;52.198;5.422;2023-05-23T11:50:45;102283.47;;;15.17;51.91
17438;BME280;70275;52.198;5.422;2023-05-23T11:53:17;102283.44;;;15.71;50.68
17438;BME280;70275;52.198;5.422;2023-05-23T11:55:52;102272.84;;;15.49;50.47
17438;BME280;70275;52.198;5.422;2023-05-23T11:58:30;102260.78;;;16.48;47.84
17438;BME280;70275;52.198;5.422;2023-05-23T12:01:00;102263.44;;;16.48;48.34
17438;BME280;70275;52.198;5.422;2023-05-23T12:03:30;102265.94;;;16.19;46.40
17438;BME280;70275;52.198;5.422;2023-05-23T12:05:59;102261.38;;;17.31;45.01
17438;BME280;70275;52.198;5.422;2023-05-23T12:08:28;102273.56;;;15.51;47.92
17438;BME280;70275;52.198;5.422;2023-05-23T12:10:59;102267.31;;;15.18;48.21
17438;BME280;70275;52.198;5.422;2023-05-23T12:13:31;102274.81;;;16.40;46.81
17438;BME280;70275;52.198;5.422;2023-05-23T12:16:01;102277.00;;;16.05;49.46
17438;BME280;70275;52.198;5.422;2023-05-23T12:18:31;102270.78;;;15.73;49.65
17438;BME280;70275;52.198;5.422;2023-05-23T12:21:01;102274.25;;;14.88;51.39
17438;BME280;70275;52.198;5.422;2023-05-23T12:23:31;102284.09;;;14.65;52.59
17438;BME280;70275;52.198;5.422;2023-05-23T12:26:04;102286.03;;;16.34;50.17
17438;BME280;70275;52.198;5.422;2023-05-23T12:28:39;102289.03;;;17.41;48.36
17438;BME280;70275;52.198;5.422;2023-05-23T12:31:11;102292.34;;;17.73;47.31
17438;BME280;70275;52.198;5.422;2023-05-23T12:33:42;102286.03;;;16.34;48.80
17438;BME280;70275;52.198;5.422;2023-05-23T12:36:14;102293.34;;;15.91;50.02
17438;BME280;70275;52.198;5.422;2023-05-23T12:38:43;102287.41;;;16.29;49.00
17438;BME280;70275;52.198;5.422;2023-05-23T12:41:16;102292.94;;;15.75;49.51
17438;BME280;70275;52.198;5.422;2023-05-23T12:43:53;102296.66;;;15.29;50.40
17438;BME280;70275;52.198;5.422;2023-05-23T12:46:24;102295.88;;;14.28;52.92
17438;BME280;70275;52.198;5.422;2023-05-23T12:48:54;102297.69;;;14.95;51.76
17438;BME280;70275;52.198;5.422;2023-05-23T12:51:23;102293.50;;;15.47;49.30
17438;BME280;70275;52.198;5.422;2023-05-23T12:53:53;102301.31;;;16.02;49.22
17438;BME280;70275;52.198;5.422;2023-05-23T12:56:22;102298.59;;;16.85;47.44
17438;BME280;70275;52.198;5.422;2023-05-23T12:58:54;102292.97;;;15.84;48.17
17438;BME280;70275;52.198;5.422;2023-05-23T13:01:23;102310.97;;;15.51;48.56
17438;BME280;70275;52.198;5.422;2023-05-23T13:03:52;102291.56;;;15.49;48.57
17438;BME280;70275;52.198;5.422;2023-05-23T13:06:21;102288.38;;;15.55;50.03
17438;BME280;70275;52.198;5.422;2023-05-23T13:08:49;102294.34;;;18.00;45.96